Cannon Ball, North Dakota
Current Conditions -  °F | °C
As of 11:35 AM on Saturday 20 Dec 2014 (Local Time) from K7L2 Reporting Station
Few Clouds Few Clouds  
Wind Chill: -7°   Ceiling: Unl
Heat Index: -3°   Visibility: 10mi
Dew Point: -3°   Wind: 7mph
Humidity: 100%   Direction: 160°SSE
Pressure: 29.9"   Gusts: NA
Location:  46.4°N, 100.6°W
Report Text: K7L2 201835Z AUTO 16006KT 10SM FEW039 M03/M03 A2990 RMK AO2
Loading
Personal Weather Stations






























Interactive Weather Map New forecast layout! Learn more

10-Day Weather Forecast

Advertisements
Track Severe Weather on mobile